Time;durP1;ratioP1;P1;durP2;ratioP2;P2;SDS_P1;SDS_P2;PMS_P1;PMS_P2;Temp;Humidity;BMP_temperature;BMP_pressure;BME280_temperature;BME280_humidity;BME280_pressure;Samples;Min_cycle;Max_cycle;Signal;HPM_P1;HPM_P2
2022/10/08 00:00:52;;;;;;;8.25;2.00;;;13.00;99.90;;;;;;5028762;28;20041;-74
2022/10/08 00:03:21;;;;;;;13.38;2.70;;;13.10;99.90;;;;;;5023952;28;20050;-74
2022/10/08 00:06:02;;;;;;;9.00;2.38;;;13.10;99.90;;;;;;5019240;28;20034;-74
2022/10/08 00:08:29;;;;;;;10.90;2.38;;;13.00;99.90;;;;;;5030250;28;20447;-74
2022/10/08 00:10:59;;;;;;;10.88;3.03;;;13.10;99.90;;;;;;5016318;28;20033;-74
2022/10/08 00:13:27;;;;;;;11.35;1.98;;;13.00;99.90;;;;;;5021101;28;20106;-75
2022/10/08 00:15:53;;;;;;;10.38;2.17;;;13.00;99.90;;;;;;5025269;28;20099;-75
2022/10/08 00:18:20;;;;;;;10.25;2.15;;;13.00;99.90;;;;;;5022104;28;20045;-74
2022/10/08 00:20:46;;;;;;;11.35;2.30;;;13.00;99.90;;;;;;5021968;28;20049;-74
2022/10/08 00:23:12;;;;;;;9.77;2.00;;;13.00;99.90;;;;;;5018995;28;20432;-74
2022/10/08 00:25:41;;;;;;;13.63;2.70;;;13.10;99.90;;;;;;5029253;28;20049;-74
2022/10/08 00:28:08;;;;;;;12.73;2.42;;;13.00;99.90;;;;;;5019449;28;20046;-73
2022/10/08 00:30:39;;;;;;;16.45;2.70;;;13.00;99.90;;;;;;5017363;28;20041;-74
2022/10/08 00:33:07;;;;;;;10.38;2.65;;;13.00;99.90;;;;;;5022470;28;20037;-74
2022/10/08 00:35:39;;;;;;;12.80;3.17;;;12.90;99.90;;;;;;5020920;28;20061;-74
2022/10/08 00:38:06;;;;;;;8.03;1.80;;;13.00;99.90;;;;;;5022013;28;20050;-74
2022/10/08 00:40:40;;;;;;;8.60;2.10;;;12.90;99.90;;;;;;5021724;28;20276;-74
2022/10/08 00:43:14;;;;;;;7.25;1.92;;;12.90;99.90;;;;;;5021891;28;20046;-74
2022/10/08 00:45:41;;;;;;;8.57;1.90;;;12.90;99.90;;;;;;5023094;28;20068;-75
2022/10/08 00:48:11;;;;;;;7.20;2.08;;;12.90;99.90;;;;;;5024432;28;20639;-74
2022/10/08 00:50:38;;;;;;;6.97;2.20;;;12.80;99.90;;;;;;5018698;28;20034;-74
2022/10/08 00:53:06;;;;;;;9.32;2.30;;;12.80;99.90;;;;;;5021850;28;20057;-75
2022/10/08 00:55:33;;;;;;;8.30;1.67;;;12.80;99.90;;;;;;5020785;28;20117;-74
2022/10/08 00:58:06;;;;;;;10.35;2.03;;;12.80;99.90;;;;;;5032870;28;20036;-74
2022/10/08 01:00:32;;;;;;;8.60;2.70;;;12.80;99.90;;;;;;5018451;28;20056;-75
2022/10/08 01:02:58;;;;;;;8.75;2.08;;;12.80;99.90;;;;;;5025487;28;20049;-75
2022/10/08 01:05:39;;;;;;;11.18;2.35;;;12.80;99.90;;;;;;5021948;28;20041;-75
2022/10/08 01:08:30;;;;;;;5.68;1.55;;;12.70;99.90;;;;;;5022778;28;20046;-74
2022/10/08 01:11:05;;;;;;;9.00;1.95;;;12.70;99.90;;;;;;5025871;28;20499;-74
2022/10/08 01:14:21;;;;;;;11.85;2.20;;;12.70;99.90;;;;;;5022941;28;20404;-74
2022/10/08 01:16:59;;;;;;;9.68;2.28;;;12.60;99.90;;;;;;4976951;28;20050;-73
2022/10/08 01:19:30;;;;;;;7.65;1.83;;;12.50;99.90;;;;;;5010771;28;20053;-74
2022/10/08 01:21:59;;;;;;;9.55;2.05;;;12.50;99.90;;;;;;5013791;28;20516;-74
2022/10/08 01:27:35;;;;;;;8.23;2.40;;;12.50;99.90;;;;;;5021386;28;20112;-73
2022/10/08 01:30:04;;;;;;;9.15;2.40;;;12.40;99.90;;;;;;5018150;28;20079;-74
2022/10/08 01:32:56;;;;;;;13.35;2.15;;;12.30;99.90;;;;;;5019985;28;20037;-74
2022/10/08 01:35:33;;;;;;;10.95;2.35;;;12.30;99.90;;;;;;5018051;28;20053;-74
2022/10/08 01:38:05;;;;;;;6.85;2.00;;;12.30;99.90;;;;;;5025586;28;20068;-74
2022/10/08 01:40:36;;;;;;;10.25;2.15;;;12.30;99.90;;;;;;5025587;28;20109;-74
2022/10/08 01:43:06;;;;;;;10.23;2.67;;;12.20;99.90;;;;;;5025821;28;20120;-74
2022/10/08 01:45:37;;;;;;;12.55;3.17;;;12.20;99.90;;;;;;5026101;28;20498;-74
2022/10/08 01:48:13;;;;;;;10.45;2.35;;;12.10;99.90;;;;;;5020070;28;20329;-74
2022/10/08 01:50:54;;;;;;;12.82;3.85;;;12.10;99.90;;;;;;5026860;28;20038;-74
2022/10/08 01:53:22;;;;;;;9.05;2.38;;;12.10;99.90;;;;;;5025323;28;20049;-74
2022/10/08 01:55:51;;;;;;;11.45;2.53;;;12.10;99.90;;;;;;5027982;28;20037;-74
2022/10/08 01:58:32;;;;;;;7.18;1.85;;;12.10;99.90;;;;;;5028916;28;20045;-74
2022/10/08 02:01:10;;;;;;;14.98;3.15;;;12.00;99.90;;;;;;5030518;28;20049;-73
2022/10/08 02:03:36;;;;;;;15.23;2.65;;;12.00;99.90;;;;;;5025615;28;20045;-73
2022/10/08 02:06:03;;;;;;;11.35;2.55;;;11.90;99.90;;;;;;5022100;28;20099;-73
2022/10/08 02:08:29;;;;;;;14.73;3.38;;;12.00;99.90;;;;;;5025684;28;20054;-74
2022/10/08 02:10:55;;;;;;;14.30;2.67;;;12.00;99.90;;;;;;5031123;28;20041;-74
2022/10/08 02:13:21;;;;;;;13.07;2.38;;;11.80;99.90;;;;;;5024577;28;20042;-73
2022/10/08 02:16:05;;;;;;;10.75;2.50;;;11.90;99.90;;;;;;5027803;28;20144;-72
2022/10/08 02:18:41;;;;;;;9.63;3.05;;;11.80;99.90;;;;;;5020580;28;20500;-73
2022/10/08 02:21:23;;;;;;;10.38;2.50;;;11.80;99.90;;;;;;5020297;28;20128;-73
2022/10/08 02:23:59;;;;;;;12.70;2.72;;;11.70;99.90;;;;;;5024142;28;20191;-74
2022/10/08 02:26:33;;;;;;;11.32;2.83;;;11.70;99.90;;;;;;5025682;28;20053;-73
2022/10/08 02:29:04;;;;;;;11.85;2.70;;;11.60;99.90;;;;;;5027308;28;20409;-73
2022/10/08 02:31:51;;;;;;;10.10;2.65;;;11.60;99.90;;;;;;5029585;28;20052;-73
2022/10/08 02:34:31;;;;;;;18.52;3.40;;;11.60;99.90;;;;;;5026439;28;20075;-74
2022/10/08 02:37:04;;;;;;;10.95;2.40;;;11.60;99.90;;;;;;5026766;28;20048;-73
2022/10/08 02:39:33;;;;;;;10.07;2.78;;;11.60;99.90;;;;;;5018807;28;20045;-74
2022/10/08 02:42:02;;;;;;;13.68;2.70;;;11.60;99.90;;;;;;5024801;28;20065;-74
2022/10/08 02:44:37;;;;;;;11.52;2.67;;;11.60;99.90;;;;;;5023652;28;20049;-73
2022/10/08 02:47:07;;;;;;;13.40;2.65;;;11.60;99.90;;;;;;5022456;28;20064;-73
2022/10/08 02:49:38;;;;;;;12.32;2.40;;;11.60;99.90;;;;;;5026728;28;20076;-73
2022/10/08 02:52:07;;;;;;;14.75;3.70;;;11.60;99.90;;;;;;5021870;28;20046;-73
2022/10/08 02:54:37;;;;;;;12.73;2.75;;;11.50;99.90;;;;;;5026021;28;20044;-73
2022/10/08 02:57:25;;;;;;;16.35;2.90;;;11.60;99.90;;;;;;5018359;28;20784;-72
2022/10/08 02:59:51;;;;;;;13.75;2.75;;;11.50;99.90;;;;;;5021497;28;20135;-72
2022/10/08 03:02:26;;;;;;;12.75;2.28;;;11.50;99.90;;;;;;5025601;28;20045;-72
2022/10/08 03:05:00;;;;;;;18.58;2.53;;;11.50;99.90;;;;;;5023179;28;20302;-72
2022/10/08 03:07:29;;;;;;;8.80;2.22;;;11.50;99.90;;;;;;5024703;28;20571;-71
2022/10/08 03:09:56;;;;;;;13.20;2.70;;;11.60;99.90;;;;;;5022756;28;20042;-73
2022/10/08 03:12:23;;;;;;;15.48;2.22;;;11.50;99.90;;;;;;5023617;28;20500;-72
2022/10/08 03:14:51;;;;;;;16.15;3.55;;;11.50;99.90;;;;;;5022412;28;20091;-72
2022/10/08 03:17:22;;;;;;;13.95;2.78;;;11.50;99.90;;;;;;5025249;28;20045;-72
2022/10/08 03:19:48;;;;;;;14.43;2.58;;;11.50;99.90;;;;;;5022223;28;20125;-73
2022/10/08 03:22:14;;;;;;;14.20;2.78;;;11.40;99.90;;;;;;5018090;28;20042;-73
2022/10/08 03:24:40;;;;;;;9.65;2.28;;;11.40;99.90;;;;;;5016016;28;20061;-73
2022/10/08 03:27:05;;;;;;;11.95;3.15;;;11.50;99.90;;;;;;5024603;28;21448;-73
2022/10/08 03:29:31;;;;;;;17.30;3.72;;;11.40;99.90;;;;;;5027626;28;20178;-73
2022/10/08 03:31:56;;;;;;;17.60;3.78;;;11.30;99.90;;;;;;5019368;28;20048;-72
2022/10/08 03:34:24;;;;;;;16.00;2.60;;;11.30;99.90;;;;;;5029266;28;20102;-74
2022/10/08 03:36:50;;;;;;;13.65;2.45;;;11.20;99.90;;;;;;5021309;28;20041;-75
2022/10/08 03:39:15;;;;;;;16.20;2.60;;;11.30;99.90;;;;;;5032653;28;20056;-74
2022/10/08 03:41:41;;;;;;;18.60;2.85;;;11.20;99.90;;;;;;5020670;28;20060;-73
2022/10/08 03:44:08;;;;;;;13.80;3.35;;;11.10;99.90;;;;;;5015777;28;20424;-72
2022/10/08 03:46:34;;;;;;;13.75;2.70;;;11.10;99.90;;;;;;5018177;28;20064;-73
2022/10/08 03:49:00;;;;;;;13.35;2.60;;;11.10;99.90;;;;;;5024047;28;20487;-73
2022/10/08 03:51:25;;;;;;;17.52;2.83;;;11.00;99.90;;;;;;5024645;28;20053;-73
2022/10/08 03:53:51;;;;;;;14.18;2.58;;;11.00;99.90;;;;;;5022606;28;20048;-72
2022/10/08 03:56:20;;;;;;;13.35;2.80;;;10.90;99.90;;;;;;5025696;28;20054;-70
2022/10/08 03:58:51;;;;;;;16.85;2.70;;;10.90;99.90;;;;;;5022859;28;20079;-72
2022/10/08 04:01:16;;;;;;;17.75;2.90;;;11.00;99.90;;;;;;5028949;28;20037;-71
2022/10/08 04:03:44;;;;;;;12.98;2.60;;;10.90;99.90;;;;;;5028570;28;20049;-71
2022/10/08 04:06:10;;;;;;;16.67;3.30;;;11.00;99.90;;;;;;5024656;28;20058;-70
2022/10/08 04:08:36;;;;;;;13.77;3.38;;;10.90;99.90;;;;;;5020454;28;20037;-71
2022/10/08 04:11:07;;;;;;;14.60;2.70;;;10.90;99.90;;;;;;5029304;28;20619;-71
2022/10/08 04:13:34;;;;;;;16.55;3.20;;;10.90;99.90;;;;;;5027827;28;20181;-71
2022/10/08 04:16:01;;;;;;;14.73;2.67;;;10.90;99.90;;;;;;5022457;28;20508;-71
2022/10/08 04:18:27;;;;;;;10.07;2.33;;;10.90;99.90;;;;;;5026847;28;20575;-72
2022/10/08 04:21:00;;;;;;;13.40;2.45;;;10.80;99.90;;;;;;5028622;28;20044;-70
2022/10/08 04:23:26;;;;;;;13.65;2.20;;;10.80;99.90;;;;;;5025479;28;20139;-71
2022/10/08 04:25:53;;;;;;;15.27;2.97;;;10.80;99.90;;;;;;5028386;28;20057;-71
2022/10/08 04:28:20;;;;;;;23.08;3.00;;;10.80;99.90;;;;;;5025575;28;20068;-72
2022/10/08 04:30:58;;;;;;;13.85;2.33;;;10.80;99.90;;;;;;5022924;28;20052;-71
2022/10/08 04:33:26;;;;;;;13.15;3.20;;;10.80;99.90;;;;;;5031667;28;20054;-72
2022/10/08 04:35:52;;;;;;;13.32;2.83;;;10.80;99.90;;;;;;5027575;28;20127;-71
2022/10/08 04:38:18;;;;;;;14.95;2.70;;;10.80;99.90;;;;;;5029304;28;20041;-72
2022/10/08 04:40:43;;;;;;;13.70;2.90;;;10.80;99.90;;;;;;5023879;28;20396;-71
2022/10/08 04:43:09;;;;;;;14.57;2.50;;;10.70;99.90;;;;;;5024034;28;20412;-70
2022/10/08 04:45:44;;;;;;;12.05;2.58;;;10.70;99.90;;;;;;5019544;28;20156;-71
2022/10/08 04:48:10;;;;;;;8.93;2.38;;;10.60;99.90;;;;;;5026628;28;20045;-72
2022/10/08 04:50:37;;;;;;;15.02;2.60;;;10.60;99.90;;;;;;5029712;28;20045;-72
2022/10/08 04:53:03;;;;;;;14.80;2.30;;;10.50;99.90;;;;;;5028072;28;20045;-72
2022/10/08 04:55:29;;;;;;;12.00;2.30;;;10.50;99.90;;;;;;5030485;28;20168;-72
2022/10/08 04:57:54;;;;;;;12.65;2.80;;;10.50;99.90;;;;;;5030355;28;20555;-71
2022/10/08 05:00:20;;;;;;;16.75;2.92;;;10.50;99.90;;;;;;5025696;28;20132;-71
2022/10/08 05:02:46;;;;;;;13.32;2.58;;;10.50;99.90;;;;;;5021740;28;20409;-71
2022/10/08 05:05:15;;;;;;;7.55;2.47;;;10.50;99.90;;;;;;5032527;28;20037;-71
2022/10/08 05:07:41;;;;;;;9.90;2.00;;;10.40;99.90;;;;;;5024961;28;20033;-71
2022/10/08 05:10:07;;;;;;;14.98;2.78;;;10.50;99.90;;;;;;5021257;28;20068;-71
2022/10/08 05:12:32;;;;;;;15.82;2.38;;;10.40;99.90;;;;;;5025635;28;20049;-71
2022/10/08 05:14:58;;;;;;;10.82;2.00;;;10.40;99.90;;;;;;5027285;28;20041;-72
2022/10/08 05:17:23;;;;;;;19.48;3.10;;;10.40;99.90;;;;;;5006957;28;20124;-71
2022/10/08 05:19:49;;;;;;;11.35;3.35;;;10.50;99.90;;;;;;5027077;28;20369;-71
2022/10/08 05:22:15;;;;;;;11.65;2.42;;;10.40;99.90;;;;;;5035423;28;20052;-71
2022/10/08 05:24:41;;;;;;;8.68;2.42;;;10.40;99.90;;;;;;5024743;28;20049;-70
2022/10/08 05:27:06;;;;;;;16.83;2.85;;;10.40;99.90;;;;;;5036685;28;20041;-71
2022/10/08 05:29:32;;;;;;;11.20;2.03;;;10.40;99.90;;;;;;5030774;28;20044;-72
2022/10/08 05:31:57;;;;;;;11.90;2.10;;;10.40;99.90;;;;;;5028510;28;20496;-72
2022/10/08 05:34:23;;;;;;;9.98;2.00;;;10.30;99.90;;;;;;5028675;28;20055;-72
2022/10/08 05:36:49;;;;;;;9.25;2.20;;;10.30;99.90;;;;;;5025141;28;20286;-70
2022/10/08 05:39:15;;;;;;;17.55;2.72;;;10.30;99.90;;;;;;5034385;28;20458;-71
2022/10/08 05:41:40;;;;;;;16.02;3.55;;;10.30;99.90;;;;;;5030556;28;20445;-71
2022/10/08 05:44:08;;;;;;;12.27;2.40;;;10.20;99.90;;;;;;5028729;28;20037;-72
2022/10/08 05:46:35;;;;;;;12.07;2.17;;;10.30;99.90;;;;;;5041169;28;20045;-72
2022/10/08 05:49:03;;;;;;;9.80;2.45;;;10.20;99.90;;;;;;5025482;28;20056;-72
2022/10/08 05:51:29;;;;;;;14.68;2.45;;;10.30;99.90;;;;;;5026601;28;20042;-72
2022/10/08 05:53:57;;;;;;;12.35;2.00;;;10.20;99.90;;;;;;5036300;28;20132;-72
2022/10/08 05:56:24;;;;;;;16.63;2.88;;;10.20;99.90;;;;;;5028473;28;20052;-72
2022/10/08 05:58:50;;;;;;;12.05;2.33;;;10.30;99.90;;;;;;5036747;28;20091;-71
2022/10/08 06:01:21;;;;;;;12.50;2.15;;;10.30;99.90;;;;;;5021346;28;20060;-70
2022/10/08 06:04:04;;;;;;;11.80;2.33;;;10.30;99.90;;;;;;5023923;28;20041;-71
2022/10/08 06:06:30;;;;;;;17.55;2.60;;;10.40;99.90;;;;;;5021775;28;20037;-70
2022/10/08 06:08:58;;;;;;;12.07;2.58;;;10.50;99.90;;;;;;5026350;28;20061;-69
2022/10/08 06:11:25;;;;;;;12.15;2.28;;;10.60;99.90;;;;;;5024313;28;20053;-71
2022/10/08 06:13:52;;;;;;;9.82;2.30;;;10.60;99.90;;;;;;5027078;28;20499;-72
2022/10/08 06:16:19;;;;;;;16.17;2.28;;;10.60;99.90;;;;;;5023882;28;20049;-72
2022/10/08 06:18:44;;;;;;;14.70;2.22;;;10.60;99.90;;;;;;5019586;28;20044;-71
2022/10/08 06:21:13;;;;;;;13.45;2.97;;;10.60;99.90;;;;;;5009373;28;20049;-71
2022/10/08 06:23:43;;;;;;;14.32;2.80;;;10.70;99.90;;;;;;5023165;28;20141;-72
2022/10/08 06:26:09;;;;;;;11.88;1.90;;;10.70;99.90;;;;;;5025514;28;20045;-72
2022/10/08 06:28:37;;;;;;;10.80;1.75;;;10.70;99.90;;;;;;5025953;28;20037;-71
2022/10/08 06:31:04;;;;;;;9.93;1.85;;;10.80;99.90;;;;;;5024375;28;20064;-70
2022/10/08 06:33:30;;;;;;;9.55;2.15;;;10.90;99.90;;;;;;5018852;28;20140;-70
2022/10/08 06:36:00;;;;;;;10.48;1.80;;;10.80;99.90;;;;;;5030111;28;20053;-70
2022/10/08 06:38:26;;;;;;;10.35;1.73;;;10.90;99.90;;;;;;5033490;28;20049;-70
2022/10/08 06:40:52;;;;;;;13.52;1.85;;;11.00;99.90;;;;;;5036515;28;20721;-70
2022/10/08 06:43:19;;;;;;;13.10;1.60;;;11.00;99.90;;;;;;5030073;28;20041;-72
2022/10/08 06:45:45;;;;;;;11.05;1.83;;;11.00;99.90;;;;;;5033496;28;20533;-71
2022/10/08 06:48:12;;;;;;;10.13;1.88;;;10.90;99.90;;;;;;5033478;28;20044;-71
2022/10/08 06:50:38;;;;;;;8.20;1.90;;;11.00;99.90;;;;;;5027522;28;20048;-70
2022/10/08 06:53:06;;;;;;;14.52;2.30;;;11.00;99.90;;;;;;5031591;28;20045;-71
2022/10/08 06:55:33;;;;;;;14.95;2.20;;;11.10;99.90;;;;;;5024786;28;20053;-72
2022/10/08 06:57:59;;;;;;;10.38;1.65;;;11.00;99.90;;;;;;5024935;28;20109;-71
2022/10/08 07:00:25;;;;;;;13.30;2.13;;;11.10;99.90;;;;;;5025218;28;20121;-70
2022/10/08 07:02:51;;;;;;;12.38;2.10;;;11.10;99.90;;;;;;5030771;28;20112;-71
2022/10/08 07:05:19;;;;;;;13.27;2.40;;;11.10;99.90;;;;;;5031994;28;20663;-70
2022/10/08 07:07:45;;;;;;;11.93;2.03;;;11.10;99.90;;;;;;5032387;28;20057;-70
2022/10/08 07:10:11;;;;;;;10.88;2.30;;;11.30;99.90;;;;;;5030415;28;20103;-71
2022/10/08 07:12:36;;;;;;;8.95;2.55;;;11.20;99.90;;;;;;5019146;28;20794;-69
2022/10/08 07:15:02;;;;;;;12.75;3.15;;;11.20;99.90;;;;;;5018755;28;20045;-69
2022/10/08 07:17:28;;;;;;;10.32;2.38;;;11.30;99.90;;;;;;5023698;28;20052;-70
2022/10/08 07:19:55;;;;;;;14.77;2.00;;;11.30;99.90;;;;;;5020966;28;20057;-70
2022/10/08 07:22:22;;;;;;;8.93;1.90;;;11.30;99.90;;;;;;5023503;28;20071;-70
2022/10/08 07:24:49;;;;;;;12.65;1.88;;;11.40;99.90;;;;;;5011906;28;20045;-70
2022/10/08 07:27:16;;;;;;;10.88;2.17;;;11.50;99.90;;;;;;5008389;28;20050;-70
2022/10/08 07:29:42;;;;;;;9.23;1.77;;;11.60;99.90;;;;;;5017528;28;20513;-70
2022/10/08 07:32:08;;;;;;;11.10;2.08;;;11.70;99.90;;;;;;5016615;28;20041;-70
2022/10/08 07:34:34;;;;;;;8.90;1.63;;;11.80;99.90;;;;;;5018088;28;20055;-70
2022/10/08 07:36:59;;;;;;;7.68;1.60;;;11.90;99.90;;;;;;5015422;28;20058;-70
2022/10/08 07:39:26;;;;;;;7.70;1.73;;;12.00;99.90;;;;;;5017444;28;20100;-70
2022/10/08 07:41:52;;;;;;;9.15;1.70;;;12.20;99.90;;;;;;5020317;28;20038;-70
2022/10/08 07:44:18;;;;;;;11.82;2.60;;;12.20;99.90;;;;;;5020408;28;20048;-70
2022/10/08 07:46:49;;;;;;;7.93;1.80;;;12.30;99.90;;;;;;5017524;28;20088;-70
2022/10/08 07:49:16;;;;;;;10.68;2.00;;;12.40;99.90;;;;;;5017249;28;20041;-71
2022/10/08 07:51:42;;;;;;;13.05;1.48;;;12.50;99.90;;;;;;5015811;28;20274;-72
2022/10/08 07:54:12;;;;;;;9.82;2.30;;;12.50;99.90;;;;;;5024985;28;20235;-70
2022/10/08 07:56:38;;;;;;;8.70;1.50;;;12.60;99.90;;;;;;5020708;28;20045;-70
2022/10/08 07:59:04;;;;;;;10.30;1.60;;;12.70;99.90;;;;;;5022381;28;20091;-72
2022/10/08 08:01:32;;;;;;;7.90;1.33;;;12.80;99.90;;;;;;5029551;28;20049;-71
2022/10/08 08:04:06;;;;;;;9.07;1.88;;;12.80;99.90;;;;;;5026638;28;20439;-72
2022/10/08 08:06:36;;;;;;;5.82;1.48;;;12.90;99.90;;;;;;5018537;28;20053;-70
2022/10/08 08:09:02;;;;;;;5.60;1.42;;;13.00;99.90;;;;;;5023431;28;20057;-72
2022/10/08 08:11:28;;;;;;;10.73;1.67;;;13.10;99.90;;;;;;5025652;28;20080;-73
2022/10/08 08:13:54;;;;;;;6.40;1.40;;;13.20;99.90;;;;;;5028021;28;20128;-75
2022/10/08 08:16:24;;;;;;;3.03;0.90;;;13.40;99.90;;;;;;5030196;28;20076;-74
2022/10/08 08:18:52;;;;;;;4.85;1.02;;;13.50;99.90;;;;;;5020117;28;20050;-74
2022/10/08 08:21:20;;;;;;;3.08;0.70;;;13.50;99.90;;;;;;5022810;28;20261;-75
2022/10/08 08:23:52;;;;;;;5.60;1.27;;;13.40;99.90;;;;;;5021622;28;20045;-73
2022/10/08 08:26:27;;;;;;;6.35;1.30;;;13.20;99.90;;;;;;5027364;28;22252;-73
2022/10/08 08:28:59;;;;;;;6.88;1.33;;;13.10;99.90;;;;;;5027885;28;20065;-70
2022/10/08 08:31:37;;;;;;;8.82;1.55;;;12.90;99.90;;;;;;5016631;28;20056;-73
2022/10/08 08:34:06;;;;;;;9.10;1.50;;;12.90;99.90;;;;;;5022192;28;20051;-72
2022/10/08 08:36:35;;;;;;;5.00;1.50;;;12.80;99.90;;;;;;5023699;28;20056;-71
2022/10/08 08:39:05;;;;;;;7.10;1.30;;;12.80;99.90;;;;;;5013924;28;20045;-72
2022/10/08 08:41:48;;;;;;;10.75;1.60;;;12.90;99.90;;;;;;5021971;28;20564;-72
2022/10/08 08:44:23;;;;;;;5.65;1.50;;;12.90;99.90;;;;;;5012074;28;20038;-73
2022/10/08 08:47:04;;;;;;;9.00;1.70;;;13.00;99.90;;;;;;5032557;28;20125;-73
2022/10/08 08:49:41;;;;;;;10.95;1.50;;;13.00;99.90;;;;;;5024992;28;20041;-74
2022/10/08 08:52:08;;;;;;;8.88;2.03;;;13.20;99.90;;;;;;5027107;28;20041;-76
2022/10/08 08:54:34;;;;;;;10.77;1.20;;;13.30;99.90;;;;;;5022875;28;20095;-74
2022/10/08 08:57:26;;;;;;;7.20;1.83;;;13.40;99.90;;;;;;5025470;28;20050;-75
2022/10/08 08:59:55;;;;;;;8.75;1.65;;;13.50;99.90;;;;;;5036032;28;20046;-75
2022/10/08 09:02:33;;;;;;;8.80;1.80;;;13.50;99.90;;;;;;5030754;28;20049;-75
2022/10/08 09:05:04;;;;;;;10.07;2.20;;;13.60;99.90;;;;;;5026433;28;20065;-73
2022/10/08 09:07:43;;;;;;;12.00;2.78;;;13.60;99.90;;;;;;5024127;28;20034;-76
2022/10/08 09:10:28;;;;;;;8.90;1.60;;;13.60;99.90;;;;;;5030391;28;20140;-77
2022/10/08 09:12:55;;;;;;;7.53;1.23;;;13.70;99.90;;;;;;5023097;28;20060;-78
2022/10/08 09:15:32;;;;;;;12.45;1.70;;;13.80;99.90;;;;;;5021731;28;20123;-80
2022/10/08 09:18:01;;;;;;;10.45;1.40;;;13.80;99.90;;;;;;5019437;28;20090;-79
2022/10/08 09:20:28;;;;;;;7.93;2.22;;;13.90;99.90;;;;;;5021598;28;20037;-77
2022/10/08 09:22:54;;;;;;;6.95;1.42;;;13.90;99.90;;;;;;5016250;28;20489;-80
2022/10/08 09:25:23;;;;;;;9.63;2.03;;;13.90;99.90;;;;;;5024456;28;20046;-76
2022/10/08 09:27:49;;;;;;;6.07;1.17;;;14.00;99.90;;;;;;5016338;28;20052;-75
2022/10/08 09:30:40;;;;;;;7.90;1.58;;;14.00;99.90;;;;;;5017434;28;20106;-77
2022/10/08 09:33:11;;;;;;;11.82;1.80;;;14.00;99.90;;;;;;5022106;28;20049;-76
2022/10/08 09:35:43;;;;;;;6.15;1.58;;;14.10;99.90;;;;;;5018911;28;20046;-76
2022/10/08 09:38:22;;;;;;;7.38;1.70;;;14.20;99.90;;;;;;5029062;28;20561;-76
2022/10/08 09:41:15;;;;;;;9.30;1.75;;;14.20;99.90;;;;;;5014483;28;20046;-77
2022/10/08 09:43:41;;;;;;;8.23;1.63;;;14.30;99.90;;;;;;5018105;28;20041;-76
2022/10/08 09:46:26;;;;;;;6.20;1.60;;;14.30;99.90;;;;;;5026971;28;20045;-76
2022/10/08 09:48:51;;;;;;;10.23;1.60;;;14.30;99.90;;;;;;5029476;28;20080;-77
2022/10/08 09:51:18;;;;;;;7.60;1.60;;;14.30;99.90;;;;;;5028116;28;20496;-75
2022/10/08 09:53:48;;;;;;;12.45;1.95;;;14.40;99.90;;;;;;5030277;28;20046;-75
2022/10/08 09:56:25;;;;;;;12.38;2.33;;;14.40;99.90;;;;;;5032698;28;20527;-77
2022/10/08 09:58:57;;;;;;;12.00;1.63;;;14.40;99.90;;;;;;5014434;28;20104;-76
2022/10/08 10:01:26;;;;;;;9.73;2.17;;;14.40;99.90;;;;;;5032222;28;20034;-78
2022/10/08 10:03:54;;;;;;;6.35;1.50;;;14.50;99.90;;;;;;5024282;28;20041;-77
2022/10/08 10:06:32;;;;;;;7.78;1.83;;;14.60;99.90;;;;;;5027847;28;20128;-76
2022/10/08 10:09:10;;;;;;;8.38;1.83;;;14.70;99.90;;;;;;5016018;28;20053;-79
2022/10/08 10:11:42;;;;;;;9.68;2.20;;;14.60;99.90;;;;;;5023843;28;20045;-79
2022/10/08 10:14:33;;;;;;;20.95;2.67;;;14.50;99.90;;;;;;5027293;28;20397;-78
2022/10/08 10:17:05;;;;;;;10.18;2.05;;;14.50;99.90;;;;;;5029536;28;20504;-77
2022/10/08 10:19:42;;;;;;;11.18;2.10;;;14.60;99.90;;;;;;5030661;28;20164;-87
2022/10/08 10:22:20;;;;;;;13.80;1.92;;;14.70;99.90;;;;;;5042128;28;20658;-85
2022/10/08 10:25:00;;;;;;;8.52;1.70;;;14.70;99.90;;;;;;5024434;28;20049;-85
2022/10/08 10:27:29;;;;;;;9.25;1.83;;;14.60;99.90;;;;;;5029159;28;20065;-81
2022/10/08 10:30:04;;;;;;;8.95;1.75;;;14.50;99.90;;;;;;5031446;28;20034;-78
2022/10/08 10:32:36;;;;;;;7.38;1.88;;;14.50;99.90;;;;;;5025930;28;20077;-76
2022/10/08 10:35:22;;;;;;;14.73;1.85;;;14.40;99.90;;;;;;5023601;28;20056;-78
2022/10/08 10:38:11;;;;;;;5.80;1.58;;;14.20;99.90;;;;;;5028723;28;20049;-78
2022/10/08 10:40:52;;;;;;;10.93;2.25;;;14.20;99.90;;;;;;5028416;28;20037;-78
2022/10/08 10:43:41;;;;;;;10.35;1.85;;;14.30;99.90;;;;;;5028539;28;20056;-79
2022/10/08 10:46:15;;;;;;;10.50;1.70;;;14.50;99.90;;;;;;5021256;28;20046;-79
2022/10/08 10:48:41;;;;;;;8.95;1.80;;;14.60;99.90;;;;;;5028431;28;20392;-79
2022/10/08 10:51:20;;;;;;;9.88;2.28;;;14.60;99.90;;;;;;5029338;28;20041;-77
2022/10/08 10:53:54;;;;;;;12.55;2.75;;;14.70;99.90;;;;;;5032647;28;20137;-78
2022/10/08 10:56:21;;;;;;;9.65;2.15;;;14.70;99.90;;;;;;5014723;28;20053;-77
2022/10/08 10:59:04;;;;;;;13.80;2.47;;;14.60;99.90;;;;;;5030032;28;20412;-77
2022/10/08 11:01:48;;;;;;;;;;;14.60;99.90;;;;;;5018904;28;20064;-76
2022/10/08 11:04:48;;;;;;;11.32;1.90;;;14.80;99.90;;;;;;5022838;28;20013;-77
2022/10/08 11:07:59;;;;;;;7.38;1.60;;;14.90;99.90;;;;;;5028346;28;20492;-78
2022/10/08 11:10:37;;;;;;;8.32;1.60;;;15.10;99.90;;;;;;5017808;28;20049;-78
2022/10/08 11:13:23;;;;;;;13.23;2.30;;;15.00;99.90;;;;;;5025023;28;20131;-77
2022/10/08 11:16:11;;;;;;;10.43;2.42;;;15.10;99.90;;;;;;5011573;28;20050;-76
2022/10/08 11:18:46;;;;;;;8.77;1.30;;;15.20;99.90;;;;;;5012041;28;20080;-77
2022/10/08 11:21:31;;;;;;;10.93;2.17;;;15.20;99.90;;;;;;5023712;28;20122;-76
2022/10/08 11:24:05;;;;;;;9.88;2.03;;;15.20;99.90;;;;;;5028662;28;20045;-77
2022/10/08 11:26:38;;;;;;;10.50;2.05;;;15.40;99.90;;;;;;5042080;28;20037;-77
2022/10/08 11:29:22;;;;;;;9.15;1.90;;;15.60;99.90;;;;;;5045801;28;20075;-76
2022/10/08 11:31:50;;;;;;;9.48;2.17;;;15.70;99.90;;;;;;5026418;28;20135;-76
2022/10/08 11:34:21;;;;;;;8.00;1.70;;;15.80;99.90;;;;;;5025973;28;21259;-77
2022/10/08 11:37:18;;;;;;;10.30;2.40;;;15.70;99.90;;;;;;5024331;28;20049;-77
2022/10/08 11:40:18;;;;;;;7.70;1.60;;;15.60;99.90;;;;;;5024383;28;20037;-77
2022/10/08 11:43:06;;;;;;;7.65;1.77;;;15.50;99.90;;;;;;5004869;28;20045;-77
2022/10/08 11:45:37;;;;;;;10.80;1.90;;;15.60;99.90;;;;;;5012616;28;20088;-77
2022/10/08 11:48:29;;;;;;;11.57;2.05;;;15.70;99.90;;;;;;5028921;28;20125;-77
2022/10/08 11:51:17;;;;;;;8.48;1.65;;;15.80;99.90;;;;;;5022784;28;20046;-77
2022/10/08 11:54:11;;;;;;;6.82;1.30;;;15.90;99.90;;;;;;5030362;28;20510;-77
2022/10/08 11:56:40;;;;;;;9.40;1.52;;;15.90;99.90;;;;;;5027115;28;20045;-76
2022/10/08 11:59:29;;;;;;;9.80;2.30;;;15.90;99.90;;;;;;5026596;28;20077;-77
2022/10/08 12:02:04;;;;;;;9.48;1.67;;;15.70;99.90;;;;;;5027075;28;20064;-77
2022/10/08 12:04:37;;;;;;;8.75;1.63;;;15.80;99.90;;;;;;5009001;28;20046;-77
2022/10/08 12:07:20;;;;;;;9.05;1.52;;;15.90;99.90;;;;;;5022856;28;20128;-77
2022/10/08 12:10:04;;;;;;;9.82;2.30;;;15.90;99.90;;;;;;5024021;28;20456;-76
2022/10/08 12:12:48;;;;;;;14.10;2.17;;;16.00;99.90;;;;;;5023696;28;20052;-77
2022/10/08 12:15:22;;;;;;;10.93;2.95;;;16.10;99.90;;;;;;5026792;28;20060;-77
2022/10/08 12:18:09;;;;;;;10.50;1.60;;;16.10;99.90;;;;;;5012653;28;20072;-76
2022/10/08 12:20:36;;;;;;;10.13;1.90;;;16.10;99.90;;;;;;5027177;28;20135;-77
2022/10/08 12:23:05;;;;;;;12.25;1.85;;;16.10;99.90;;;;;;5024343;28;20508;-76
2022/10/08 12:25:47;;;;;;;9.52;1.95;;;16.10;99.90;;;;;;5031132;28;20095;-76
2022/10/08 12:28:19;;;;;;;12.73;1.90;;;15.90;99.90;;;;;;5038856;28;20424;-76
2022/10/08 12:30:50;;;;;;;13.05;2.00;;;15.70;99.90;;;;;;5024911;28;20289;-77
2022/10/08 12:33:17;;;;;;;13.25;2.00;;;15.50;99.90;;;;;;5014759;28;20104;-76
2022/10/08 12:36:22;;;;;;;6.38;1.38;;;15.50;99.90;;;;;;5028381;28;20120;-75
2022/10/08 12:39:01;;;;;;;9.75;1.73;;;15.50;99.90;;;;;;5013594;28;20037;-74
2022/10/08 12:41:39;;;;;;;14.43;2.03;;;15.40;99.90;;;;;;5022816;28;20161;-74
2022/10/08 12:44:10;;;;;;;9.15;1.73;;;15.30;99.90;;;;;;5015078;28;20060;-74
2022/10/08 12:47:11;;;;;;;8.48;1.58;;;15.30;99.90;;;;;;5026732;28;20056;-75
2022/10/08 12:49:46;;;;;;;8.75;1.50;;;15.40;99.90;;;;;;5014670;28;20053;-75
2022/10/08 12:52:17;;;;;;;7.50;2.60;;;15.60;99.90;;;;;;5029689;28;20046;-78
2022/10/08 12:54:54;;;;;;;6.35;1.50;;;15.70;99.90;;;;;;5038185;28;20056;-77
2022/10/08 12:57:28;;;;;;;9.75;1.67;;;15.90;99.90;;;;;;5032958;28;20061;-76
2022/10/08 12:59:56;;;;;;;8.15;1.63;;;16.00;99.90;;;;;;5016008;28;20046;-75
2022/10/08 13:02:25;;;;;;;6.75;1.75;;;16.10;99.90;;;;;;5021328;28;20552;-75
2022/10/08 13:04:51;;;;;;;9.05;1.90;;;16.10;99.90;;;;;;5023444;28;20058;-75
2022/10/08 13:07:24;;;;;;;8.60;1.33;;;15.90;99.90;;;;;;5011338;28;20053;-75